createdAt,value
2023-03-19T00:00:33.290Z,2.90
2023-03-19T00:03:01.491Z,2.47
2023-03-19T00:05:29.469Z,2.50
2023-03-19T00:07:57.356Z,2.80
2023-03-19T00:10:25.470Z,2.37
2023-03-19T00:12:53.310Z,2.80
2023-03-19T00:15:21.198Z,2.63
2023-03-19T00:17:50.542Z,2.47
2023-03-19T00:20:19.849Z,2.63
2023-03-19T00:22:47.720Z,3.03
2023-03-19T00:25:15.875Z,2.73
2023-03-19T00:27:44.632Z,2.90
2023-03-19T00:30:13.824Z,3.27
2023-03-19T00:32:41.920Z,2.77
2023-03-19T00:35:11.667Z,3.60
2023-03-19T00:37:41.175Z,2.80
2023-03-19T00:40:11.787Z,3.07
2023-03-19T00:42:41.358Z,2.80
2023-03-19T00:45:10.728Z,2.90
2023-03-19T00:47:38.713Z,2.83
2023-03-19T00:50:07.295Z,3.00
2023-03-19T00:52:36.528Z,2.70
2023-03-19T00:55:04.630Z,3.00
2023-03-19T00:57:32.449Z,3.20
2023-03-19T01:00:00.465Z,2.80
2023-03-19T01:02:28.291Z,2.63
2023-03-19T01:04:56.212Z,2.90
2023-03-19T01:07:24.133Z,3.00
2023-03-19T01:09:53.339Z,3.20
2023-03-19T01:12:21.286Z,3.13
2023-03-19T01:14:49.156Z,2.57
2023-03-19T01:17:17.013Z,2.67
2023-03-19T01:19:44.988Z,2.90
2023-03-19T01:22:13.093Z,2.80
2023-03-19T01:24:45.512Z,3.13
2023-03-19T01:27:14.779Z,2.90
2023-03-19T01:29:42.639Z,2.70
2023-03-19T01:32:30.156Z,2.60
2023-03-19T01:35:20.997Z,2.80
2023-03-19T01:37:48.987Z,3.10
2023-03-19T01:40:17.185Z,3.00
2023-03-19T01:43:15.736Z,2.60
2023-03-19T01:45:50.761Z,2.50
2023-03-19T01:48:41.057Z,2.53
2023-03-19T01:51:17.341Z,2.77
2023-03-19T01:54:11.523Z,3.33
2023-03-19T01:57:06.080Z,2.50
2023-03-19T01:59:56.157Z,3.27
2023-03-19T02:02:42.760Z,2.73
2023-03-19T02:05:25.652Z,3.10
2023-03-19T02:07:57.818Z,3.10
2023-03-19T02:10:26.440Z,3.50
2023-03-19T02:12:54.471Z,3.77
2023-03-19T02:15:23.898Z,3.90
2023-03-19T02:17:51.836Z,3.13
2023-03-19T02:20:27.127Z,2.87
2023-03-19T02:23:04.019Z,2.80
2023-03-19T02:25:36.264Z,3.50
2023-03-19T02:28:06.185Z,2.60
2023-03-19T02:30:35.584Z,2.80
2023-03-19T02:33:10.680Z,3.40
2023-03-19T02:35:38.989Z,3.10
2023-03-19T02:38:07.206Z,3.30
2023-03-19T02:40:37.977Z,3.10
2023-03-19T02:43:07.652Z,3.20
2023-03-19T02:45:35.664Z,3.03
2023-03-19T02:48:03.805Z,3.00
2023-03-19T02:50:31.920Z,2.73
2023-03-19T02:53:00.050Z,2.97
2023-03-19T02:55:27.937Z,3.13
2023-03-19T02:57:56.561Z,3.90
2023-03-19T03:00:26.548Z,2.60
2023-03-19T03:02:54.542Z,2.90
2023-03-19T03:05:22.484Z,3.03
2023-03-19T03:07:51.227Z,3.30
2023-03-19T03:10:19.302Z,2.93
2023-03-19T03:12:47.411Z,3.40
2023-03-19T03:15:15.349Z,3.13
2023-03-19T03:17:45.876Z,2.70
2023-03-19T03:20:17.667Z,2.27
2023-03-19T03:22:45.953Z,2.83
2023-03-19T03:25:14.246Z,2.80
2023-03-19T03:27:42.416Z,3.00
2023-03-19T03:30:11.882Z,3.00
2023-03-19T03:32:40.266Z,2.70
2023-03-19T03:35:12.651Z,2.43
2023-03-19T03:37:40.739Z,3.27
2023-03-19T03:40:12.190Z,2.57
2023-03-19T03:42:40.262Z,2.70
2023-03-19T03:45:11.133Z,2.90
2023-03-19T03:47:39.738Z,3.07
2023-03-19T03:50:10.856Z,3.20
2023-03-19T03:52:42.188Z,2.60
2023-03-19T03:55:10.724Z,2.73
2023-03-19T03:57:38.543Z,2.73
2023-03-19T04:00:07.473Z,2.63
2023-03-19T04:02:41.389Z,2.50
2023-03-19T04:05:13.083Z,2.57
2023-03-19T04:07:45.791Z,2.70
2023-03-19T04:10:14.131Z,2.80
2023-03-19T04:12:42.020Z,3.60
2023-03-19T04:15:12.041Z,2.57
2023-03-19T04:17:42.508Z,2.80
2023-03-19T04:20:12.508Z,3.47
2023-03-19T04:22:40.544Z,3.00
2023-03-19T04:25:10.717Z,2.60
2023-03-19T04:27:39.909Z,3.30
2023-03-19T04:30:11.395Z,2.77
2023-03-19T04:32:39.744Z,3.57
2023-03-19T04:35:08.165Z,2.90
2023-03-19T04:37:36.069Z,2.87
2023-03-19T04:40:05.261Z,3.23
2023-03-19T04:42:39.484Z,2.93
2023-03-19T04:45:12.280Z,3.10
2023-03-19T04:47:41.349Z,3.30
2023-03-19T04:50:11.020Z,3.27
2023-03-19T04:52:39.367Z,3.67
2023-03-19T04:55:08.168Z,3.20
2023-03-19T04:57:49.472Z,3.43
2023-03-19T05:00:18.647Z,3.40
2023-03-19T05:02:48.132Z,3.27
2023-03-19T05:05:16.405Z,3.00
2023-03-19T05:07:45.172Z,3.10
2023-03-19T05:10:13.386Z,3.10
2023-03-19T05:12:41.537Z,3.33
2023-03-19T05:15:12.831Z,2.70
2023-03-19T05:17:48.758Z,3.57
2023-03-19T05:20:21.345Z,3.63
2023-03-19T05:22:55.209Z,3.30
2023-03-19T05:25:31.196Z,3.20
2023-03-19T05:27:59.731Z,3.00
2023-03-19T05:30:29.168Z,3.20
2023-03-19T05:33:03.485Z,3.13
2023-03-19T05:35:36.588Z,3.27
2023-03-19T05:38:08.155Z,3.67
2023-03-19T05:40:37.011Z,3.30
2023-03-19T05:43:19.102Z,3.93
2023-03-19T05:45:53.290Z,3.47
2023-03-19T05:48:25.897Z,3.60
2023-03-19T05:50:53.801Z,2.83
2023-03-19T05:53:23.898Z,4.37
2023-03-19T05:56:16.752Z,3.33
2023-03-19T05:58:57.795Z,3.70
2023-03-19T06:01:32.188Z,3.60
2023-03-19T06:04:01.740Z,3.77
2023-03-19T06:06:30.326Z,3.73
2023-03-19T06:08:58.183Z,4.27
2023-03-19T06:11:36.802Z,3.80
2023-03-19T06:14:27.243Z,4.43
2023-03-19T06:17:28.282Z,4.10
2023-03-19T06:20:03.487Z,4.63
2023-03-19T06:22:31.353Z,4.30
2023-03-19T06:24:59.321Z,4.10
2023-03-19T06:27:27.438Z,4.80
2023-03-19T06:30:05.546Z,4.43
2023-03-19T06:32:36.181Z,4.37
2023-03-19T06:35:10.363Z,4.33
2023-03-19T06:37:38.574Z,4.10
2023-03-19T06:40:07.348Z,3.90
2023-03-19T06:42:35.786Z,4.23
2023-03-19T06:45:03.841Z,4.90
2023-03-19T06:47:31.752Z,4.10
2023-03-19T06:50:01.159Z,3.90
2023-03-19T06:52:29.078Z,4.40
2023-03-19T06:54:56.912Z,4.70
2023-03-19T06:57:24.745Z,4.13
2023-03-19T06:59:52.600Z,4.47
2023-03-19T07:02:20.931Z,4.17
2023-03-19T07:04:48.927Z,4.20
2023-03-19T07:07:18.157Z,5.10
2023-03-19T07:09:46.006Z,4.60
2023-03-19T07:12:14.187Z,4.50
2023-03-19T07:14:42.112Z,4.10
2023-03-19T07:17:10.485Z,4.33
2023-03-19T07:19:38.383Z,4.57
2023-03-19T07:22:06.735Z,4.20
2023-03-19T07:24:36.000Z,4.80
2023-03-19T07:27:03.903Z,4.70
2023-03-19T07:29:31.867Z,4.60
2023-03-19T07:31:59.781Z,4.00
2023-03-19T07:34:27.719Z,4.17
2023-03-19T07:36:55.584Z,3.67
2023-03-19T07:39:23.412Z,4.10
2023-03-19T07:41:52.654Z,4.00
2023-03-19T07:44:23.510Z,3.90
2023-03-19T07:46:51.495Z,3.93
2023-03-19T07:49:19.373Z,3.60
2023-03-19T07:51:47.305Z,3.70
2023-03-19T07:54:15.851Z,3.80
2023-03-19T07:56:43.833Z,3.77
2023-03-19T07:59:13.031Z,3.47
2023-03-19T08:01:40.890Z,3.77
2023-03-19T08:04:09.069Z,3.60
2023-03-19T08:06:38.531Z,4.07
2023-03-19T08:09:06.629Z,3.57
2023-03-19T08:11:34.543Z,3.80
2023-03-19T08:14:02.383Z,3.50
2023-03-19T08:16:31.701Z,3.37
2023-03-19T08:18:59.699Z,3.70
2023-03-19T08:21:27.749Z,4.03
2023-03-19T08:23:55.869Z,3.27
2023-03-19T08:26:23.717Z,3.30
2023-03-19T08:28:52.360Z,4.10
2023-03-19T08:31:20.307Z,3.40
2023-03-19T08:33:49.518Z,3.87
2023-03-19T08:36:17.446Z,4.10
2023-03-19T08:38:45.392Z,4.10
2023-03-19T08:41:13.481Z,4.30
2023-03-19T08:43:41.333Z,3.80
2023-03-19T08:46:09.259Z,3.50
2023-03-19T08:48:38.777Z,3.57
2023-03-19T08:51:09.789Z,3.83
2023-03-19T08:53:38.718Z,3.73
2023-03-19T08:56:08.808Z,3.60
2023-03-19T08:58:36.778Z,3.13
2023-03-19T09:01:05.741Z,3.00
2023-03-19T09:03:33.684Z,2.90
2023-03-19T09:06:01.885Z,2.83
2023-03-19T09:08:31.791Z,3.00
2023-03-19T09:11:00.179Z,2.70
2023-03-19T09:13:28.199Z,3.07
2023-03-19T09:15:56.183Z,2.53
2023-03-19T09:18:25.598Z,2.77
2023-03-19T09:20:54.142Z,3.27
2023-03-19T09:23:22.323Z,2.80
2023-03-19T09:25:52.656Z,2.77
2023-03-19T09:28:20.776Z,2.50
2023-03-19T09:30:49.079Z,2.90
2023-03-19T09:33:17.468Z,2.73
2023-03-19T09:35:45.342Z,2.43
2023-03-19T09:38:13.380Z,2.00
2023-03-19T09:40:45.076Z,2.27
2023-03-19T09:43:34.882Z,2.50
2023-03-19T09:46:04.941Z,2.20
2023-03-19T09:48:36.039Z,1.90
2023-03-19T09:51:06.945Z,2.43
2023-03-19T09:53:42.105Z,3.07
2023-03-19T09:56:14.357Z,3.07
2023-03-19T09:58:43.897Z,2.57
2023-03-19T10:01:22.089Z,2.80
2023-03-19T10:04:02.218Z,2.80
2023-03-19T10:06:33.710Z,2.73
2023-03-19T10:09:25.064Z,3.10
2023-03-19T10:12:02.154Z,3.13
2023-03-19T10:14:57.719Z,3.17
2023-03-19T10:17:29.012Z,2.30
2023-03-19T10:19:59.408Z,3.10
2023-03-19T10:22:31.059Z,2.90
2023-03-19T10:24:59.962Z,3.57
2023-03-19T10:27:29.726Z,3.07
2023-03-19T10:29:58.966Z,3.47
2023-03-19T10:32:30.360Z,3.00
2023-03-19T10:35:00.569Z,2.90
2023-03-19T10:37:29.830Z,2.80
2023-03-19T10:39:59.351Z,3.57
2023-03-19T10:42:42.137Z,3.57
2023-03-19T10:45:20.438Z,2.90
2023-03-19T10:47:48.633Z,3.20
2023-03-19T10:50:18.188Z,3.60
2023-03-19T10:52:47.054Z,3.07
2023-03-19T10:55:17.869Z,3.33
2023-03-19T10:57:47.561Z,3.20
2023-03-19T11:00:22.633Z,3.40
2023-03-19T11:02:53.223Z,3.50
2023-03-19T11:05:31.948Z,3.00
2023-03-19T11:08:02.068Z,3.33
2023-03-19T11:10:31.756Z,3.07
2023-03-19T11:13:01.769Z,3.50
2023-03-19T11:15:37.000Z,3.00
2023-03-19T11:18:15.930Z,3.30
2023-03-19T11:20:43.932Z,4.07
2023-03-19T11:23:16.552Z,3.10
2023-03-19T11:25:49.018Z,3.37
2023-03-19T11:28:20.909Z,3.30
2023-03-19T11:31:00.182Z,3.20
2023-03-19T11:33:47.131Z,3.23
2023-03-19T11:36:20.093Z,3.50
2023-03-19T11:39:00.661Z,3.50
2023-03-19T11:41:37.944Z,3.10
2023-03-19T11:44:08.296Z,3.20
2023-03-19T11:46:42.780Z,3.00
2023-03-19T11:49:39.326Z,3.10
2023-03-19T11:52:14.180Z,3.03
2023-03-19T11:54:46.772Z,2.70
2023-03-19T11:57:19.758Z,2.70
2023-03-19T12:00:08.094Z,2.70
2023-03-19T12:02:55.677Z,2.60
2023-03-19T12:05:26.860Z,2.70
2023-03-19T12:08:05.786Z,2.67
2023-03-19T12:10:42.191Z,2.50
2023-03-19T12:13:20.701Z,2.17
2023-03-19T12:15:55.811Z,3.50
2023-03-19T12:18:47.142Z,2.90
2023-03-19T12:21:19.515Z,2.87
2023-03-19T12:24:00.556Z,3.13
2023-03-19T12:26:36.567Z,2.53
2023-03-19T12:29:12.619Z,2.57
2023-03-19T12:31:54.914Z,3.10
2023-03-19T12:34:29.788Z,3.77
2023-03-19T12:37:05.199Z,2.80
2023-03-19T12:39:35.930Z,3.27
2023-03-19T12:42:05.460Z,3.10
2023-03-19T12:44:36.366Z,3.00
2023-03-19T12:47:07.116Z,2.67
2023-03-19T12:49:39.119Z,3.07
2023-03-19T12:52:12.286Z,3.53
2023-03-19T12:54:43.273Z,3.30
2023-03-19T12:57:13.642Z,3.50
2023-03-19T12:59:45.296Z,3.53
2023-03-19T13:02:19.287Z,3.60
2023-03-19T13:04:53.496Z,3.07
2023-03-19T13:07:23.917Z,4.00
2023-03-19T13:09:54.785Z,4.53
2023-03-19T13:12:24.346Z,3.90
2023-03-19T13:14:59.855Z,4.03
2023-03-19T13:17:32.942Z,3.93
2023-03-19T13:20:11.452Z,3.80
2023-03-19T13:22:40.344Z,3.27
2023-03-19T13:25:11.906Z,3.10
2023-03-19T13:27:39.740Z,2.80
2023-03-19T13:30:16.841Z,2.77
2023-03-19T13:32:48.816Z,2.47
2023-03-19T13:35:40.518Z,2.40
2023-03-19T13:38:16.967Z,2.10
2023-03-19T13:40:47.362Z,2.70
2023-03-19T13:43:28.276Z,2.40
2023-03-19T13:46:05.896Z,2.70
2023-03-19T13:48:38.986Z,2.70
2023-03-19T13:51:27.043Z,2.80
2023-03-19T13:53:56.259Z,3.17
2023-03-19T13:56:30.095Z,3.20
2023-03-19T13:59:22.300Z,2.70
2023-03-19T14:01:50.161Z,2.70
2023-03-19T14:04:27.808Z,3.03
2023-03-19T14:06:58.888Z,3.40
2023-03-19T14:09:33.512Z,3.00
2023-03-19T14:12:23.953Z,2.90
2023-03-19T14:14:53.652Z,3.60
2023-03-19T14:17:23.899Z,3.13
2023-03-19T14:19:53.139Z,3.33
2023-03-19T14:22:32.737Z,3.00
2023-03-19T14:25:15.419Z,2.90
2023-03-19T14:27:46.576Z,2.83
2023-03-19T14:30:23.862Z,3.40
2023-03-19T14:32:52.422Z,3.27
2023-03-19T14:35:21.056Z,3.20
2023-03-19T14:37:52.216Z,3.07
2023-03-19T14:40:22.555Z,3.00
2023-03-19T14:42:59.161Z,2.90
2023-03-19T14:45:43.041Z,2.83
2023-03-19T14:48:24.113Z,2.37
2023-03-19T14:51:13.184Z,2.37
2023-03-19T14:53:43.422Z,1.93
2023-03-19T14:56:14.985Z,1.93
2023-03-19T14:58:50.631Z,2.00
2023-03-19T15:01:19.252Z,1.70
2023-03-19T15:03:47.192Z,2.67
2023-03-19T15:06:16.010Z,2.10
2023-03-19T15:08:45.272Z,1.93
2023-03-19T15:11:32.440Z,1.80
2023-03-19T15:14:09.160Z,1.90
2023-03-19T15:16:44.117Z,1.70
2023-03-19T15:19:12.743Z,1.50
2023-03-19T15:21:40.856Z,1.00
2023-03-19T15:24:14.816Z,1.30
2023-03-19T15:26:42.674Z,1.53
2023-03-19T15:29:12.395Z,1.10
2023-03-19T15:31:51.664Z,1.43
2023-03-19T15:34:23.186Z,1.63
2023-03-19T15:36:54.522Z,1.40
2023-03-19T15:39:26.013Z,1.23
2023-03-19T15:41:54.739Z,1.40
2023-03-19T15:44:26.690Z,1.80
2023-03-19T15:46:55.350Z,1.70
2023-03-19T15:49:27.104Z,1.30
2023-03-19T15:51:58.625Z,1.90
2023-03-19T15:54:28.641Z,1.23
2023-03-19T15:56:57.225Z,1.20
2023-03-19T15:59:29.916Z,0.97
2023-03-19T16:01:59.777Z,1.03
2023-03-19T16:04:29.777Z,1.00
2023-03-19T16:06:58.788Z,0.83
2023-03-19T16:09:33.005Z,0.90
2023-03-19T16:12:01.882Z,1.00
2023-03-19T16:14:33.115Z,0.83
2023-03-19T16:17:02.892Z,1.03
2023-03-19T16:19:33.140Z,0.90
2023-03-19T16:22:01.774Z,1.00
2023-03-19T16:24:34.241Z,1.20
2023-03-19T16:27:06.209Z,1.00
2023-03-19T16:29:38.921Z,1.10
2023-03-19T16:32:19.057Z,1.10
2023-03-19T16:34:49.174Z,1.00
2023-03-19T16:37:41.386Z,1.20
2023-03-19T16:40:45.384Z,1.10
2023-03-19T16:43:18.805Z,1.20
2023-03-19T16:45:51.298Z,1.20
2023-03-19T16:48:19.217Z,1.50
2023-03-19T16:50:47.579Z,1.23
2023-03-19T16:53:26.414Z,1.23
2023-03-19T16:55:57.045Z,1.37
2023-03-19T16:58:30.539Z,1.33
2023-03-19T17:00:58.942Z,1.40
2023-03-19T17:03:29.963Z,1.40
2023-03-19T17:05:58.057Z,1.63
2023-03-19T17:08:26.444Z,1.77
2023-03-19T17:10:56.286Z,1.83
2023-03-19T17:13:28.117Z,1.90
2023-03-19T17:15:57.172Z,1.83
2023-03-19T17:18:26.770Z,1.60
2023-03-19T17:20:57.034Z,1.77
2023-03-19T17:23:27.015Z,2.00
2023-03-19T17:25:56.494Z,1.83
2023-03-19T17:28:24.689Z,2.00
2023-03-19T17:30:52.734Z,2.13
2023-03-19T17:33:25.804Z,2.23
2023-03-19T17:35:54.566Z,2.20
2023-03-19T17:38:23.056Z,2.57
2023-03-19T17:40:50.964Z,2.30
2023-03-19T17:43:20.459Z,2.10
2023-03-19T17:45:49.293Z,2.30
2023-03-19T17:48:19.980Z,2.40
2023-03-19T17:50:47.827Z,2.07
2023-03-19T17:53:16.873Z,2.30
2023-03-19T17:55:44.757Z,1.97
2023-03-19T17:58:17.590Z,2.50
2023-03-19T18:00:47.269Z,2.10
2023-03-19T18:03:16.150Z,2.53
2023-03-19T18:05:44.489Z,2.23
2023-03-19T18:08:15.989Z,2.90
2023-03-19T18:10:44.682Z,2.67
2023-03-19T18:13:12.564Z,2.90
2023-03-19T18:15:41.943Z,3.00
2023-03-19T18:18:17.157Z,3.30
2023-03-19T18:20:46.619Z,2.90
2023-03-19T18:23:16.165Z,3.77
2023-03-19T18:25:44.346Z,3.97
2023-03-19T18:28:12.288Z,4.03
2023-03-19T18:30:41.119Z,4.40
2023-03-19T18:33:15.184Z,4.60
2023-03-19T18:35:44.886Z,4.13
2023-03-19T18:38:19.283Z,4.27
2023-03-19T18:40:47.592Z,2.83
2023-03-19T18:43:16.467Z,2.90
2023-03-19T18:45:45.157Z,2.80
2023-03-19T18:48:20.712Z,2.87
2023-03-19T18:50:48.681Z,2.77
2023-03-19T18:53:17.354Z,2.93
2023-03-19T18:55:45.405Z,2.90
2023-03-19T18:58:20.169Z,3.10
2023-03-19T19:00:48.724Z,3.40
2023-03-19T19:03:20.065Z,3.03
2023-03-19T19:05:49.658Z,2.97
2023-03-19T19:08:19.852Z,4.37
2023-03-19T19:10:52.517Z,3.47
2023-03-19T19:13:22.598Z,4.17
2023-03-19T19:15:50.875Z,3.67
2023-03-19T19:18:22.758Z,3.43
2023-03-19T19:20:54.042Z,3.27
2023-03-19T19:23:26.878Z,3.67
2023-03-19T19:25:56.127Z,3.57
2023-03-19T19:28:26.921Z,3.40
2023-03-19T19:30:59.515Z,4.37
2023-03-19T19:33:31.652Z,3.73
2023-03-19T19:35:59.726Z,4.10
2023-03-19T19:38:28.608Z,4.17
2023-03-19T19:40:58.363Z,5.13
2023-03-19T19:43:28.471Z,5.10
2023-03-19T19:45:58.733Z,4.63
2023-03-19T19:48:30.893Z,4.90
2023-03-19T19:50:59.465Z,4.63
2023-03-19T19:53:29.643Z,5.70
2023-03-19T19:55:57.752Z,4.83
2023-03-19T19:58:28.377Z,4.87
2023-03-19T20:01:03.315Z,4.23
2023-03-19T20:03:34.993Z,5.00
2023-03-19T20:06:03.220Z,5.00
2023-03-19T20:08:31.306Z,4.70
2023-03-19T20:11:00.001Z,5.13
2023-03-19T20:13:30.985Z,5.13
2023-03-19T20:16:00.310Z,4.90
2023-03-19T20:18:32.024Z,5.00
2023-03-19T20:21:04.216Z,5.60
2023-03-19T20:23:32.306Z,5.70
2023-03-19T20:26:01.772Z,5.40
2023-03-19T20:28:33.959Z,5.47
2023-03-19T20:31:02.975Z,4.93
2023-03-19T20:33:32.417Z,5.00
2023-03-19T20:36:00.621Z,5.10
2023-03-19T20:38:30.094Z,4.30
2023-03-19T20:40:58.932Z,4.33
2023-03-19T20:43:29.452Z,3.97
2023-03-19T20:45:58.221Z,3.67
2023-03-19T20:48:27.290Z,3.90
2023-03-19T20:50:55.884Z,3.70
2023-03-19T20:53:24.099Z,3.90
2023-03-19T20:55:53.856Z,3.80
2023-03-19T20:58:25.608Z,3.77
2023-03-19T21:00:54.041Z,4.13
2023-03-19T21:03:23.483Z,3.60
2023-03-19T21:05:52.823Z,2.80
2023-03-19T21:08:27.501Z,3.20
2023-03-19T21:10:56.706Z,2.93
2023-03-19T21:13:24.503Z,3.00
2023-03-19T21:15:53.951Z,2.90
2023-03-19T21:18:21.928Z,2.80
2023-03-19T21:20:53.913Z,2.93
2023-03-19T21:23:26.713Z,3.17
2023-03-19T21:25:56.353Z,3.03
2023-03-19T21:28:26.783Z,3.00
2023-03-19T21:30:54.680Z,3.20
2023-03-19T21:33:25.211Z,3.27
2023-03-19T21:35:53.514Z,3.80
2023-03-19T21:38:22.390Z,3.30
2023-03-19T21:40:57.938Z,3.50
2023-03-19T21:43:33.556Z,3.00
2023-03-19T21:46:13.852Z,2.93
2023-03-19T21:48:49.685Z,2.90
2023-03-19T21:51:17.602Z,2.63
2023-03-19T21:53:45.863Z,3.23
2023-03-19T21:56:21.311Z,3.07
2023-03-19T21:58:49.565Z,3.50
2023-03-19T22:01:19.068Z,3.38
2023-03-19T22:03:47.187Z,3.50
2023-03-19T22:06:17.058Z,3.50
2023-03-19T22:08:48.131Z,3.70
2023-03-19T22:11:19.782Z,4.03
2023-03-19T22:13:47.830Z,3.73
2023-03-19T22:16:19.773Z,4.00
2023-03-19T22:18:48.143Z,3.80
2023-03-19T22:21:16.492Z,3.27
2023-03-19T22:23:44.614Z,4.10
2023-03-19T22:26:27.467Z,3.70
2023-03-19T22:28:55.914Z,3.80
2023-03-19T22:31:24.120Z,3.73
2023-03-19T22:33:52.289Z,3.83
2023-03-19T22:36:20.368Z,3.60
2023-03-19T22:38:49.519Z,3.17
2023-03-19T22:41:19.164Z,3.50
2023-03-19T22:43:48.590Z,3.40
2023-03-19T22:46:18.208Z,3.30
2023-03-19T22:48:47.928Z,3.17
2023-03-19T22:51:18.350Z,2.77
2023-03-19T22:53:46.696Z,2.60
2023-03-19T22:56:15.079Z,2.90
2023-03-19T22:58:43.244Z,2.40
2023-03-19T23:01:32.705Z,2.60
2023-03-19T23:04:15.791Z,1.80
2023-03-19T23:06:43.710Z,2.43
2023-03-19T23:09:15.559Z,2.37
2023-03-19T23:11:43.627Z,2.20
2023-03-19T23:14:26.086Z,2.03
2023-03-19T23:19:29.128Z,2.30
2023-03-19T23:21:57.852Z,2.50
2023-03-19T23:24:26.631Z,2.20
2023-03-19T23:26:55.866Z,2.43
2023-03-19T23:29:26.874Z,2.37
2023-03-19T23:31:54.789Z,2.17
2023-03-19T23:34:25.902Z,2.10
2023-03-19T23:36:54.470Z,2.40
2023-03-19T23:39:22.372Z,2.20
2023-03-19T23:41:53.745Z,2.40
2023-03-19T23:44:22.045Z,2.20
2023-03-19T23:46:51.796Z,2.60
2023-03-19T23:49:28.699Z,2.33
2023-03-19T23:51:57.385Z,2.53
2023-03-19T23:54:30.047Z,2.80
2023-03-19T23:56:59.646Z,2.63
2023-03-19T23:59:28.559Z,2.73
